Résultats

LA TRILOGIE D AURIOL
11kms - PETIT LORIOT. Édition 2017.

11 Km
03/06/2017 à 17:30:00 - Auriol (13)
166 arrivant(e)s.





Place▲ Temps Dossard Nom Prenom Categ #Categ Sexe #Sexe Club Vit Moy Diplôme Partager
1 00:40:44 637 TRON ALEXANDRE SEM 1 M 1 VILLE DE PEYNIER-MARATHONIACK 16.20
2 00:42:45 658 LE-BORGNE NICOLAS SEM 2 M 2 CEF MARATHONIEN 15.44
3 00:42:58 639 NEGOSANTI JULIEN SEM 3 M 3 15.36
4 00:43:01 550 GIL RENAUD M1M 1 M 4 SCO STE-MARGUERITE MARSEILLE 15.34
5 00:44:20 636 HADRZYNSKI MARC M1M 2 M 5 CEF MARATHONIEN 14.89
6 00:45:44 635 AOUICHAT JEREMY SEM 4 M 6 AUBAGNE TRI 14.43
7 00:45:45 512 BELFY ARNAUD M1M 3 M 7 UAVH AUBAGNE 14.43
8 00:46:53 620 SOMANO REMY ESM 1 M 8 CEF MARATHONIEN 14.08
9 00:47:22 501 ABBES PATRICK M1M 4 M 9 UAVH AUBAGNE 13.93
10 00:47:50 648 GIORDANO THIERRY M1M 5 M 10 13.80
11 00:47:52 609 WYSS STEPHANE M1M 6 M 11 13.79
12 00:47:56 568 LONGO GILBERT M2M 1 M 12 13.77
13 00:49:38 539 DOSSETTO ARNAUD SEM 5 M 13 SMUC 13.30
14 00:49:39 48 SCARPA CARLO M1M 7 M 14 13.29
15 00:49:58 529 COSNE ALAN SEM 6 M 15 SMAC 13.21
16 00:50:27 654 ALLIO FREDERIC SEM 7 M 16 KM 42.195 MARSEILLE 13.08
17 00:50:38 657 GIUSTI THIBAULT SEM 8 M 17 13.03
18 00:50:49 525 CHERON NOEL M1M 8 M 18 12.99
19 00:51:10 548 GARIGLIO JOEL M1M 9 M 19 12.90
20 00:51:55 611 SALINAS PATRICK M2M 2 M 20 12.71
21 00:52:06 670 JULIAN MARC M1M 10 M 21 12.67
22 00:52:24 642 CHARPENTIER GERARD M2M 3 M 22 OCC CABRIES CALAS 12.60
23 00:52:27 652 BOISBINEUF EMERIC CAM 1 M 23 AUBAGNE TRI 12.58
24 00:53:15 607 WALKINGSHAW SIAN SEF 1 F 1 12.39
25 00:53:16 653 DESAGE CHRISTOPHE M1M 11 M 24 12.39
26 00:53:21 601 TOLLARI-DEVERECI ANGELINE SEF 2 F 2 ACTI3 ALLAUCH 12.37
27 00:54:01 659 POINT LAURENCE SEF 3 F 3 CEF MARATHONIEN 12.22
28 00:54:10 557 GRIMAUD FLORENT SEM 9 M 25 12.18
29 00:54:18 564 LEONE JEAN-VICTOR M2M 4 M 26 USTM-JOGGING 12.15
30 00:54:22 507 AYME JULIEN M1M 12 M 27 GEMALTO 12.14
31 00:55:01 612 FILLON MARCEL ESM 2 M 28 12.00
32 00:55:08 656 COLIN ANNE M2F 1 F 4 TRAIL CLUB DE PROVENCE 11.97
33 00:55:21 622 RASPAIL LOUIS CAM 2 M 29 UAVH AUBAGNE 11.92
34 00:55:21 559 IMBERT CHRISTOPHE SEM 10 M 30 11.92
35 00:55:39 510 BARTHELEMY BRUNO M1M 13 M 31 11.86
36 00:55:50 503 AMBROSINO SERGE M2M 5 M 32 AA ALLAUDIENNE 11.82
37 00:55:51 598 TERRER ELODIE SEF 4 F 5 LA FOULEE DE GREASQUE 11.82
38 00:56:02 621 FLORENTIN VINCENT JUM 1 M 33 JOGGEURS AUBAGNAIS 11.78
39 00:56:21 582 PELLET NICOLAS ESM 3 M 34 MJC PLAN DE CUQUES 11.71
40 00:56:31 586 RAHAL LINDA M1F 1 F 6 AUBAGNE TRI 11.68
41 00:56:49 505 ATTIAS SEBASTIEN SEM 11 M 35 11.62
42 00:57:15 631 FONRATH JEAN-CHRISTOPHE M2M 6 M 36 11.53
43 00:57:41 641 GIRAUD DENIS M2M 7 M 37 AS REALTOR 11.44
44 00:57:45 647 CASELLAS OLIVIER M1M 14 M 38 11.43
45 00:58:37 502 ALLISIO THEO JUM 2 M 39 11.26
46 00:58:45 610 BARON EDDY ESM 4 M 40 11.23
47 00:58:50 605 VAYRON GEORGES M2M 8 M 41 AA ALLAUDIENNE 11.22
48 00:58:54 524 CHASTEL ALAIN M2M 9 M 42 LES JOGGEURS AUBAGNAIS 11.21
49 00:58:57 519 BURALLI FABRICE SEM 12 M 43 GEM TRI ATHLE 11.20
50 00:59:03 538 DIMAYUGA STEPHANE M1M 15 M 44 SAPEUR-POMPIER LA CIOTAT-CEYRESTE 11.18
51 00:59:08 668 LE-MOEL JEROME SEM 13 M 45 BCO 11.16
52 00:59:10 587 RODRIGUES YANN SEM 14 M 46 STILL 11.15
53 00:59:15 645 GARENCE JEAN-CHRISTOPHE M1M 16 M 47 S/L COURIR POUR LA MEMOIRE 11.14
54 00:59:20 651 SORRENTINO MAGALI M1F 2 F 7 AUBAGNE TRI 11.12
55 00:59:40 606 VITRY MARION SEF 5 F 8 11.06
56 00:59:51 600 THIBAUD MARION SEF 6 F 9 LA FOULEE DE GREASQUE 11.03
57 01:00:12 646 CAUDRELIER ALAIN M2M 10 M 48 - 10.96
58 01:00:33 517 BOURGEAT ERIC M2M 11 M 49 CARSAT SUD-EST 10.90
59 01:01:06 583 PELLET PASCAL M3M 1 M 50 AA ALLAUDIENNE 10.80
60 01:01:10 537 DESBUISSONS LAURENT SEM 15 M 51 10.79
61 01:01:21 527 COLLIN FREDERIC M1M 17 M 52 TEAM VENDOME 10.76
62 01:01:31 534 DELTOUR JEAN-CHRISTOPHE M2M 12 M 53 AMC AUBAGNE 10.73
63 01:01:41 574 MOUROUX XAVIER SEM 16 M 54 10.70
64 01:01:51 628 DELTOUR JEAN-LUC M3M 2 M 55 AMC AUBAGNE 10.67
65 01:02:00 518 BRUYERE CHRISTELLE M1F 3 F 10 10.65
66 01:02:04 619 D'AMICO PATRICK M3M 3 M 56 AA ALLAUDIENNE 10.63
67 01:02:28 623 D'ANGELO PATRICE M3M 4 M 57 10.57
68 01:02:40 515 BORELLI STEPHANE M1M 18 M 58 CLUB OMNISPORTS PORTICCIO 10.53
69 01:02:51 509 BARBIER JEROME M1M 19 M 59 GEMALTO 10.50
70 01:03:05 558 HARROUE LAURENT M2M 13 M 60 CSPCG 13 10.46
71 01:03:30 506 AUNE CHANTAL M2F 2 F 11 10.39
72 01:03:48 590 SAUVAGEOT JULIEN SEM 17 M 61 LE LIEVRE ET LA TORTUE 10.34
73 01:04:46 596 SOUCASSE RAYMOND M4M 1 M 62 10.19
74 01:04:51 597 TANGAR DAVID M2M 14 M 63 AA ALLAUDIENNE 10.18
75 01:05:10 629 DELTOUR SANDRA M1F 4 F 12 AMC AUBAGNE 10.13
76 01:05:11 552 GIORDANO SANDRINE SEF 7 F 13 10.13
77 01:05:19 649 CARBONELLI DELPHINE SEF 8 F 14 AUBAGNE TRI 10.10
78 01:05:55 594 SINACORI JULIEN SEM 18 M 64 ROQ TRAIL ATTITUDE 10.01
79 01:06:02 655 ORDIONI JEAN-LOUIS M3M 5 M 65 LES MOUTONS BIQUES DU GARLABAN 9.99
80 01:06:22 593 SIMITSIDIS ERIC M2M 15 M 66 FOULEE PORT DE BOUCAINE 9.94
81 01:06:37 603 TURCO ROGER M3M 6 M 67 LLES JOGGEURS AUBAGNAIS 9.91
82 01:06:46 544 FLORENTIN MURIELLE M1F 5 F 15 LES JOGGEURS AUBAGNAIS 9.89
83 01:06:54 592 SEMERIA PATRICK M2M 16 M 68 CE ST MICROELECTRONICS 9.87
84 01:07:11 585 RADEL ANNE M1F 6 F 16 9.82
85 01:07:14 613 CHARLA CHRISTOPHE M2M 17 M 69 9.82
86 01:07:31 650 COUSIN NANCY M1F 7 F 17 9.78
87 01:07:38 530 COULANGE NATHALIE M1F 8 F 18 TRAIL CLUB DES FOUS 9.76
88 01:07:49 551 GIORDANO MARIE-PIERRE M1F 9 F 19 9.73
89 01:08:04 522 CHAMBION BENOIT M1M 20 M 70 9.70
90 01:08:20 584 QUENTIN EMMANUEL M1M 21 M 71 9.66
91 01:08:55 567 LOCARD GAELLE SEF 9 F 20 LABOSUD PROVENCE BIOLOGIE 9.58
92 01:09:32 618 TRELLUYER EDMOND M4M 2 M 72 9.49
93 01:09:37 523 CHASTEL AGNES M2F 3 F 21 LES JOGGEURS AUBAGNAIS 9.48
94 01:09:45 531 COULANGE-ZAVARRO MARION ESF 1 F 22 TRAIL CLUB DES FOUS 9.46
95 01:09:53 615 PASSA EMILE M4M 3 M 73 RUNNING MARSEILLE 9.44
96 01:10:13 624 JACQUOT ALEXANDRE SEM 19 M 74 9.40
97 01:10:20 664 CANALE MURIEL M1F 10 F 23 9.38
98 01:10:25 573 MOUROUX NATHALIE SEF 10 F 24 ROQ TRAIL ATTITUDE 9.37
99 01:10:56 640 BEAUVOIS ANNICK M2F 4 F 25 CAVAL PERTUIS 9.30
100 01:11:43 546 N:Anonyme 546 P:Anonyme 546 SEM 20 M 75 9.20